sensor_id;sensor_type;location;lat;lon;timestamp;P1;durP1;ratioP1;P2;durP2;ratioP2
73642;SDS011;61938;48.652;9.292;2023-12-20T00:01:31;3.38;;;1.70;;
73642;SDS011;61938;48.652;9.292;2023-12-20T00:03:57;3.15;;;1.63;;
73642;SDS011;61938;48.652;9.292;2023-12-20T00:06:22;3.38;;;1.58;;
73642;SDS011;61938;48.652;9.292;2023-12-20T00:08:48;3.67;;;1.90;;
73642;SDS011;61938;48.652;9.292;2023-12-20T00:11:13;2.97;;;1.70;;
73642;SDS011;61938;48.652;9.292;2023-12-20T00:13:39;3.85;;;1.77;;
73642;SDS011;61938;48.652;9.292;2023-12-20T00:16:04;2.95;;;1.80;;
73642;SDS011;61938;48.652;9.292;2023-12-20T00:18:30;2.72;;;1.80;;
73642;SDS011;61938;48.652;9.292;2023-12-20T00:20:55;3.47;;;2.00;;
73642;SDS011;61938;48.652;9.292;2023-12-20T00:23:21;3.47;;;1.92;;
73642;SDS011;61938;48.652;9.292;2023-12-20T00:25:48;3.10;;;1.85;;
73642;SDS011;61938;48.652;9.292;2023-12-20T00:28:13;5.82;;;2.13;;
73642;SDS011;61938;48.652;9.292;2023-12-20T00:30:39;3.58;;;1.92;;
73642;SDS011;61938;48.652;9.292;2023-12-20T00:33:04;3.97;;;2.00;;
73642;SDS011;61938;48.652;9.292;2023-12-20T00:35:30;5.47;;;2.05;;
73642;SDS011;61938;48.652;9.292;2023-12-20T00:37:55;4.53;;;2.08;;
73642;SDS011;61938;48.652;9.292;2023-12-20T00:40:21;2.92;;;1.73;;
73642;SDS011;61938;48.652;9.292;2023-12-20T00:42:47;3.28;;;1.98;;
73642;SDS011;61938;48.652;9.292;2023-12-20T00:45:13;3.65;;;1.80;;
73642;SDS011;61938;48.652;9.292;2023-12-20T00:47:39;4.15;;;1.70;;
73642;SDS011;61938;48.652;9.292;2023-12-20T00:50:05;3.15;;;1.52;;
73642;SDS011;61938;48.652;9.292;2023-12-20T00:52:31;2.53;;;1.42;;
73642;SDS011;61938;48.652;9.292;2023-12-20T00:54:56;3.55;;;1.65;;
73642;SDS011;61938;48.652;9.292;2023-12-20T00:57:22;3.47;;;1.77;;
73642;SDS011;61938;48.652;9.292;2023-12-20T00:59:48;2.30;;;1.48;;
73642;SDS011;61938;48.652;9.292;2023-12-20T01:02:14;2.53;;;1.30;;
73642;SDS011;61938;48.652;9.292;2023-12-20T01:04:39;2.65;;;1.45;;
73642;SDS011;61938;48.652;9.292;2023-12-20T01:07:04;2.67;;;1.35;;
73642;SDS011;61938;48.652;9.292;2023-12-20T01:09:30;3.13;;;1.25;;
73642;SDS011;61938;48.652;9.292;2023-12-20T01:11:56;2.03;;;1.25;;
73642;SDS011;61938;48.652;9.292;2023-12-20T01:14:21;1.75;;;1.13;;
73642;SDS011;61938;48.652;9.292;2023-12-20T01:16:47;3.13;;;1.40;;
73642;SDS011;61938;48.652;9.292;2023-12-20T01:19:12;4.68;;;1.55;;
73642;SDS011;61938;48.652;9.292;2023-12-20T01:21:39;3.00;;;1.73;;
73642;SDS011;61938;48.652;9.292;2023-12-20T01:24:05;3.10;;;1.77;;
73642;SDS011;61938;48.652;9.292;2023-12-20T01:26:31;2.38;;;1.20;;
73642;SDS011;61938;48.652;9.292;2023-12-20T01:28:56;3.10;;;1.50;;
73642;SDS011;61938;48.652;9.292;2023-12-20T01:31:22;3.78;;;1.77;;
73642;SDS011;61938;48.652;9.292;2023-12-20T01:33:48;3.20;;;1.42;;
73642;SDS011;61938;48.652;9.292;2023-12-20T01:36:13;6.05;;;1.77;;
73642;SDS011;61938;48.652;9.292;2023-12-20T01:38:39;4.28;;;1.35;;
73642;SDS011;61938;48.652;9.292;2023-12-20T01:41:05;2.70;;;1.50;;
73642;SDS011;61938;48.652;9.292;2023-12-20T01:43:30;2.92;;;1.48;;
73642;SDS011;61938;48.652;9.292;2023-12-20T01:45:57;3.03;;;1.40;;
73642;SDS011;61938;48.652;9.292;2023-12-20T01:48:23;2.47;;;1.10;;
73642;SDS011;61938;48.652;9.292;2023-12-20T01:50:50;3.58;;;1.35;;
73642;SDS011;61938;48.652;9.292;2023-12-20T01:53:16;2.88;;;1.67;;
73642;SDS011;61938;48.652;9.292;2023-12-20T01:55:44;2.80;;;1.23;;
73642;SDS011;61938;48.652;9.292;2023-12-20T01:58:09;3.17;;;1.20;;
73642;SDS011;61938;48.652;9.292;2023-12-20T02:00:37;3.58;;;1.90;;
73642;SDS011;61938;48.652;9.292;2023-12-20T02:03:03;2.03;;;0.93;;
73642;SDS011;61938;48.652;9.292;2023-12-20T02:05:34;4.00;;;1.20;;
73642;SDS011;61938;48.652;9.292;2023-12-20T02:08:00;1.38;;;0.90;;
73642;SDS011;61938;48.652;9.292;2023-12-20T02:10:26;2.60;;;1.25;;
73642;SDS011;61938;48.652;9.292;2023-12-20T02:12:52;4.50;;;1.10;;
73642;SDS011;61938;48.652;9.292;2023-12-20T02:15:17;1.70;;;1.10;;
73642;SDS011;61938;48.652;9.292;2023-12-20T02:17:43;1.40;;;0.70;;
73642;SDS011;61938;48.652;9.292;2023-12-20T02:20:10;1.33;;;0.80;;
73642;SDS011;61938;48.652;9.292;2023-12-20T02:22:35;1.40;;;1.00;;
73642;SDS011;61938;48.652;9.292;2023-12-20T02:25:01;4.13;;;0.52;;
73642;SDS011;61938;48.652;9.292;2023-12-20T02:27:27;1.02;;;0.65;;
73642;SDS011;61938;48.652;9.292;2023-12-20T02:29:53;1.10;;;0.70;;
73642;SDS011;61938;48.652;9.292;2023-12-20T02:32:19;1.85;;;0.57;;
73642;SDS011;61938;48.652;9.292;2023-12-20T02:34:47;1.42;;;0.70;;
73642;SDS011;61938;48.652;9.292;2023-12-20T02:37:13;2.55;;;0.85;;
73642;SDS011;61938;48.652;9.292;2023-12-20T02:39:38;0.90;;;0.60;;
73642;SDS011;61938;48.652;9.292;2023-12-20T02:42:04;1.33;;;0.70;;
73642;SDS011;61938;48.652;9.292;2023-12-20T02:44:29;1.50;;;1.00;;
73642;SDS011;61938;48.652;9.292;2023-12-20T02:46:55;1.60;;;0.70;;
73642;SDS011;61938;48.652;9.292;2023-12-20T02:49:20;1.20;;;0.77;;
73642;SDS011;61938;48.652;9.292;2023-12-20T02:51:46;1.55;;;0.60;;
73642;SDS011;61938;48.652;9.292;2023-12-20T02:54:11;1.25;;;0.70;;
73642;SDS011;61938;48.652;9.292;2023-12-20T02:56:37;0.77;;;0.55;;
73642;SDS011;61938;48.652;9.292;2023-12-20T02:59:03;2.38;;;0.93;;
73642;SDS011;61938;48.652;9.292;2023-12-20T03:01:31;1.15;;;0.60;;
73642;SDS011;61938;48.652;9.292;2023-12-20T03:03:57;0.73;;;0.40;;
73642;SDS011;61938;48.652;9.292;2023-12-20T03:06:22;0.85;;;0.60;;
73642;SDS011;61938;48.652;9.292;2023-12-20T03:08:48;2.30;;;0.80;;
73642;SDS011;61938;48.652;9.292;2023-12-20T03:11:13;1.08;;;0.65;;
73642;SDS011;61938;48.652;9.292;2023-12-20T03:13:39;0.90;;;0.75;;
73642;SDS011;61938;48.652;9.292;2023-12-20T03:16:08;0.75;;;0.60;;
73642;SDS011;61938;48.652;9.292;2023-12-20T03:18:34;0.95;;;0.68;;
73642;SDS011;61938;48.652;9.292;2023-12-20T03:21:00;2.80;;;0.80;;
73642;SDS011;61938;48.652;9.292;2023-12-20T03:23:25;1.50;;;0.88;;
73642;SDS011;61938;48.652;9.292;2023-12-20T03:25:52;1.42;;;0.85;;
73642;SDS011;61938;48.652;9.292;2023-12-20T03:28:17;2.47;;;0.63;;
73642;SDS011;61938;48.652;9.292;2023-12-20T03:30:44;1.20;;;0.50;;
73642;SDS011;61938;48.652;9.292;2023-12-20T03:33:09;2.85;;;0.75;;
73642;SDS011;61938;48.652;9.292;2023-12-20T03:35:35;2.35;;;0.70;;
73642;SDS011;61938;48.652;9.292;2023-12-20T03:38:01;1.70;;;0.70;;
73642;SDS011;61938;48.652;9.292;2023-12-20T03:40:26;0.80;;;0.40;;
73642;SDS011;61938;48.652;9.292;2023-12-20T03:42:52;0.60;;;0.35;;
73642;SDS011;61938;48.652;9.292;2023-12-20T03:45:17;1.52;;;0.70;;
73642;SDS011;61938;48.652;9.292;2023-12-20T03:47:43;2.13;;;0.60;;
73642;SDS011;61938;48.652;9.292;2023-12-20T03:50:08;0.95;;;0.60;;
73642;SDS011;61938;48.652;9.292;2023-12-20T03:52:34;2.10;;;0.50;;
73642;SDS011;61938;48.652;9.292;2023-12-20T03:54:59;0.57;;;0.50;;
73642;SDS011;61938;48.652;9.292;2023-12-20T03:57:25;1.27;;;0.57;;
73642;SDS011;61938;48.652;9.292;2023-12-20T03:59:50;0.52;;;0.38;;
73642;SDS011;61938;48.652;9.292;2023-12-20T04:02:16;0.70;;;0.47;;
73642;SDS011;61938;48.652;9.292;2023-12-20T04:04:42;1.30;;;0.50;;
73642;SDS011;61938;48.652;9.292;2023-12-20T04:07:08;1.25;;;0.43;;
73642;SDS011;61938;48.652;9.292;2023-12-20T04:09:34;1.17;;;0.57;;
73642;SDS011;61938;48.652;9.292;2023-12-20T04:11:59;0.90;;;0.40;;
73642;SDS011;61938;48.652;9.292;2023-12-20T04:14:25;0.75;;;0.30;;
73642;SDS011;61938;48.652;9.292;2023-12-20T04:16:50;0.85;;;0.50;;
73642;SDS011;61938;48.652;9.292;2023-12-20T04:19:16;1.45;;;0.90;;
73642;SDS011;61938;48.652;9.292;2023-12-20T04:21:41;1.95;;;0.95;;
73642;SDS011;61938;48.652;9.292;2023-12-20T04:24:07;1.10;;;0.60;;
73642;SDS011;61938;48.652;9.292;2023-12-20T04:26:33;1.92;;;1.05;;
73642;SDS011;61938;48.652;9.292;2023-12-20T04:28:58;0.80;;;0.70;;
73642;SDS011;61938;48.652;9.292;2023-12-20T04:31:24;1.23;;;0.70;;
73642;SDS011;61938;48.652;9.292;2023-12-20T04:33:49;3.25;;;0.80;;
73642;SDS011;61938;48.652;9.292;2023-12-20T04:36:15;0.80;;;0.60;;
73642;SDS011;61938;48.652;9.292;2023-12-20T04:38:40;1.42;;;0.65;;
73642;SDS011;61938;48.652;9.292;2023-12-20T04:41:06;1.20;;;0.80;;
73642;SDS011;61938;48.652;9.292;2023-12-20T04:43:31;1.08;;;0.73;;
73642;SDS011;61938;48.652;9.292;2023-12-20T04:45:57;1.27;;;0.60;;
73642;SDS011;61938;48.652;9.292;2023-12-20T04:48:22;1.40;;;0.40;;
73642;SDS011;61938;48.652;9.292;2023-12-20T04:50:48;0.77;;;0.47;;
73642;SDS011;61938;48.652;9.292;2023-12-20T04:53:14;0.73;;;0.50;;
73642;SDS011;61938;48.652;9.292;2023-12-20T04:55:39;1.45;;;0.50;;
73642;SDS011;61938;48.652;9.292;2023-12-20T04:58:05;1.23;;;0.50;;
73642;SDS011;61938;48.652;9.292;2023-12-20T05:00:30;0.80;;;0.50;;
73642;SDS011;61938;48.652;9.292;2023-12-20T05:02:56;1.67;;;0.95;;
73642;SDS011;61938;48.652;9.292;2023-12-20T05:05:21;1.00;;;0.60;;
73642;SDS011;61938;48.652;9.292;2023-12-20T05:07:47;1.15;;;0.70;;
73642;SDS011;61938;48.652;9.292;2023-12-20T05:10:13;0.88;;;0.47;;
73642;SDS011;61938;48.652;9.292;2023-12-20T05:12:38;0.85;;;0.30;;
73642;SDS011;61938;48.652;9.292;2023-12-20T05:15:05;0.73;;;0.40;;
73642;SDS011;61938;48.652;9.292;2023-12-20T05:17:31;1.73;;;0.47;;
73642;SDS011;61938;48.652;9.292;2023-12-20T05:19:56;1.95;;;0.88;;
73642;SDS011;61938;48.652;9.292;2023-12-20T05:22:22;3.85;;;1.50;;
73642;SDS011;61938;48.652;9.292;2023-12-20T05:24:47;3.72;;;1.42;;
73642;SDS011;61938;48.652;9.292;2023-12-20T05:27:13;2.33;;;1.13;;
73642;SDS011;61938;48.652;9.292;2023-12-20T05:29:38;3.42;;;1.15;;
73642;SDS011;61938;48.652;9.292;2023-12-20T05:32:04;3.17;;;1.50;;
73642;SDS011;61938;48.652;9.292;2023-12-20T05:34:30;1.85;;;1.10;;
73642;SDS011;61938;48.652;9.292;2023-12-20T05:36:56;1.20;;;0.80;;
73642;SDS011;61938;48.652;9.292;2023-12-20T05:39:22;1.60;;;0.68;;
73642;SDS011;61938;48.652;9.292;2023-12-20T05:41:47;2.22;;;1.17;;
73642;SDS011;61938;48.652;9.292;2023-12-20T05:44:13;2.03;;;0.80;;
73642;SDS011;61938;48.652;9.292;2023-12-20T05:46:38;1.58;;;0.50;;
73642;SDS011;61938;48.652;9.292;2023-12-20T05:49:05;0.57;;;0.40;;
73642;SDS011;61938;48.652;9.292;2023-12-20T05:51:30;0.73;;;0.40;;
73642;SDS011;61938;48.652;9.292;2023-12-20T05:53:56;0.50;;;0.30;;
73642;SDS011;61938;48.652;9.292;2023-12-20T05:56:21;0.45;;;0.30;;
73642;SDS011;61938;48.652;9.292;2023-12-20T05:58:47;0.68;;;0.30;;
73642;SDS011;61938;48.652;9.292;2023-12-20T06:01:14;0.47;;;0.25;;
73642;SDS011;61938;48.652;9.292;2023-12-20T06:03:41;0.32;;;0.30;;
73642;SDS011;61938;48.652;9.292;2023-12-20T06:06:07;0.55;;;0.25;;
73642;SDS011;61938;48.652;9.292;2023-12-20T06:08:33;1.25;;;0.35;;
73642;SDS011;61938;48.652;9.292;2023-12-20T06:10:59;0.25;;;0.20;;
73642;SDS011;61938;48.652;9.292;2023-12-20T06:13:25;0.68;;;0.40;;
73642;SDS011;61938;48.652;9.292;2023-12-20T06:15:51;1.02;;;0.40;;
73642;SDS011;61938;48.652;9.292;2023-12-20T06:18:17;0.30;;;0.20;;
73642;SDS011;61938;48.652;9.292;2023-12-20T06:20:42;1.08;;;0.85;;
73642;SDS011;61938;48.652;9.292;2023-12-20T06:23:08;0.65;;;0.30;;
73642;SDS011;61938;48.652;9.292;2023-12-20T06:25:33;1.48;;;0.40;;
73642;SDS011;61938;48.652;9.292;2023-12-20T06:27:59;0.40;;;0.28;;
73642;SDS011;61938;48.652;9.292;2023-12-20T06:30:24;0.45;;;0.35;;
73642;SDS011;61938;48.652;9.292;2023-12-20T06:32:52;1.38;;;0.73;;
73642;SDS011;61938;48.652;9.292;2023-12-20T06:35:18;0.73;;;0.40;;
73642;SDS011;61938;48.652;9.292;2023-12-20T06:37:44;0.50;;;0.40;;
73642;SDS011;61938;48.652;9.292;2023-12-20T06:40:10;0.90;;;0.47;;
73642;SDS011;61938;48.652;9.292;2023-12-20T06:42:36;0.63;;;0.35;;
73642;SDS011;61938;48.652;9.292;2023-12-20T06:45:01;3.70;;;0.70;;
73642;SDS011;61938;48.652;9.292;2023-12-20T06:47:27;0.70;;;0.40;;
73642;SDS011;61938;48.652;9.292;2023-12-20T06:49:53;1.92;;;0.85;;
73642;SDS011;61938;48.652;9.292;2023-12-20T06:52:18;3.03;;;1.58;;
73642;SDS011;61938;48.652;9.292;2023-12-20T06:54:44;2.67;;;1.30;;
73642;SDS011;61938;48.652;9.292;2023-12-20T06:57:09;3.10;;;1.50;;
73642;SDS011;61938;48.652;9.292;2023-12-20T06:59:38;3.70;;;1.60;;
73642;SDS011;61938;48.652;9.292;2023-12-20T07:02:05;2.60;;;1.40;;
73642;SDS011;61938;48.652;9.292;2023-12-20T07:04:31;3.53;;;1.90;;
73642;SDS011;61938;48.652;9.292;2023-12-20T07:06:56;2.63;;;1.25;;
73642;SDS011;61938;48.652;9.292;2023-12-20T07:09:25;3.08;;;1.30;;
73642;SDS011;61938;48.652;9.292;2023-12-20T07:11:51;3.25;;;1.60;;
73642;SDS011;61938;48.652;9.292;2023-12-20T07:14:16;3.55;;;1.50;;
73642;SDS011;61938;48.652;9.292;2023-12-20T07:16:42;3.15;;;1.75;;
73642;SDS011;61938;48.652;9.292;2023-12-20T07:19:07;3.83;;;1.60;;
73642;SDS011;61938;48.652;9.292;2023-12-20T07:21:33;2.45;;;1.35;;
73642;SDS011;61938;48.652;9.292;2023-12-20T07:23:58;1.90;;;1.15;;
73642;SDS011;61938;48.652;9.292;2023-12-20T07:26:24;1.92;;;0.77;;
73642;SDS011;61938;48.652;9.292;2023-12-20T07:28:49;2.17;;;1.10;;
73642;SDS011;61938;48.652;9.292;2023-12-20T07:31:15;2.20;;;1.40;;
73642;SDS011;61938;48.652;9.292;2023-12-20T07:33:41;1.80;;;1.00;;
73642;SDS011;61938;48.652;9.292;2023-12-20T07:36:07;2.25;;;0.98;;
73642;SDS011;61938;48.652;9.292;2023-12-20T07:38:32;1.40;;;0.80;;
73642;SDS011;61938;48.652;9.292;2023-12-20T07:40:58;5.53;;;1.02;;
73642;SDS011;61938;48.652;9.292;2023-12-20T07:43:24;1.90;;;1.05;;
73642;SDS011;61938;48.652;9.292;2023-12-20T07:45:49;8.07;;;1.60;;
73642;SDS011;61938;48.652;9.292;2023-12-20T07:48:15;2.65;;;1.15;;
73642;SDS011;61938;48.652;9.292;2023-12-20T07:50:40;2.38;;;1.58;;
73642;SDS011;61938;48.652;9.292;2023-12-20T07:53:07;6.82;;;1.80;;
73642;SDS011;61938;48.652;9.292;2023-12-20T07:55:32;3.55;;;1.98;;
73642;SDS011;61938;48.652;9.292;2023-12-20T07:57:59;5.38;;;2.58;;
73642;SDS011;61938;48.652;9.292;2023-12-20T08:00:25;6.25;;;3.05;;
73642;SDS011;61938;48.652;9.292;2023-12-20T08:02:50;9.65;;;2.90;;
73642;SDS011;61938;48.652;9.292;2023-12-20T08:05:16;16.38;;;4.13;;
73642;SDS011;61938;48.652;9.292;2023-12-20T08:07:41;11.65;;;4.63;;
73642;SDS011;61938;48.652;9.292;2023-12-20T08:10:07;12.98;;;4.68;;
73642;SDS011;61938;48.652;9.292;2023-12-20T08:12:33;7.05;;;3.28;;
73642;SDS011;61938;48.652;9.292;2023-12-20T08:14:59;5.32;;;2.17;;
73642;SDS011;61938;48.652;9.292;2023-12-20T08:17:24;21.15;;;2.95;;
73642;SDS011;61938;48.652;9.292;2023-12-20T08:19:50;7.47;;;2.00;;
73642;SDS011;61938;48.652;9.292;2023-12-20T08:22:16;3.40;;;1.63;;
73642;SDS011;61938;48.652;9.292;2023-12-20T08:24:42;5.32;;;1.38;;
73642;SDS011;61938;48.652;9.292;2023-12-20T08:27:07;3.03;;;1.30;;
73642;SDS011;61938;48.652;9.292;2023-12-20T08:29:34;3.08;;;1.02;;
73642;SDS011;61938;48.652;9.292;2023-12-20T08:32:00;3.20;;;1.00;;
73642;SDS011;61938;48.652;9.292;2023-12-20T08:34:25;5.35;;;1.20;;
73642;SDS011;61938;48.652;9.292;2023-12-20T08:36:51;2.28;;;1.30;;
73642;SDS011;61938;48.652;9.292;2023-12-20T08:39:17;4.88;;;1.85;;
73642;SDS011;61938;48.652;9.292;2023-12-20T08:41:42;3.75;;;2.00;;
73642;SDS011;61938;48.652;9.292;2023-12-20T08:44:08;4.25;;;2.17;;
73642;SDS011;61938;48.652;9.292;2023-12-20T08:46:34;3.45;;;1.85;;
73642;SDS011;61938;48.652;9.292;2023-12-20T08:49:00;5.03;;;2.03;;
73642;SDS011;61938;48.652;9.292;2023-12-20T08:51:26;5.32;;;2.10;;
73642;SDS011;61938;48.652;9.292;2023-12-20T08:53:52;5.15;;;2.70;;
73642;SDS011;61938;48.652;9.292;2023-12-20T08:56:18;8.88;;;2.97;;
73642;SDS011;61938;48.652;9.292;2023-12-20T08:58:44;8.13;;;4.20;;
73642;SDS011;61938;48.652;9.292;2023-12-20T09:01:10;10.63;;;4.35;;
73642;SDS011;61938;48.652;9.292;2023-12-20T09:03:36;7.60;;;4.95;;
73642;SDS011;61938;48.652;9.292;2023-12-20T09:06:01;10.25;;;4.72;;
73642;SDS011;61938;48.652;9.292;2023-12-20T09:08:27;12.98;;;5.70;;
73642;SDS011;61938;48.652;9.292;2023-12-20T09:10:52;10.68;;;5.13;;
73642;SDS011;61938;48.652;9.292;2023-12-20T09:13:18;7.45;;;4.60;;
73642;SDS011;61938;48.652;9.292;2023-12-20T09:15:43;7.47;;;4.63;;
73642;SDS011;61938;48.652;9.292;2023-12-20T09:18:09;7.10;;;3.90;;
73642;SDS011;61938;48.652;9.292;2023-12-20T09:20:35;10.10;;;4.53;;
73642;SDS011;61938;48.652;9.292;2023-12-20T09:23:00;14.35;;;3.15;;
73642;SDS011;61938;48.652;9.292;2023-12-20T09:25:26;10.90;;;3.58;;
73642;SDS011;61938;48.652;9.292;2023-12-20T09:27:52;6.88;;;3.42;;
73642;SDS011;61938;48.652;9.292;2023-12-20T09:30:18;6.03;;;2.50;;
73642;SDS011;61938;48.652;9.292;2023-12-20T09:32:45;4.53;;;1.85;;
73642;SDS011;61938;48.652;9.292;2023-12-20T09:35:10;6.05;;;2.30;;
73642;SDS011;61938;48.652;9.292;2023-12-20T09:37:36;9.13;;;2.28;;
73642;SDS011;61938;48.652;9.292;2023-12-20T09:40:02;4.47;;;2.42;;
73642;SDS011;61938;48.652;9.292;2023-12-20T09:45:04;5.40;;;2.13;;
73642;SDS011;61938;48.652;9.292;2023-12-20T09:47:38;9.23;;;2.63;;
73642;SDS011;61938;48.652;9.292;2023-12-20T09:50:04;6.90;;;2.30;;
73642;SDS011;61938;48.652;9.292;2023-12-20T09:52:31;6.03;;;2.00;;
73642;SDS011;61938;48.652;9.292;2023-12-20T09:54:57;10.18;;;2.10;;
73642;SDS011;61938;48.652;9.292;2023-12-20T09:57:24;5.45;;;1.75;;
73642;SDS011;61938;48.652;9.292;2023-12-20T09:59:50;13.57;;;2.33;;
73642;SDS011;61938;48.652;9.292;2023-12-20T10:02:15;5.18;;;2.13;;
73642;SDS011;61938;48.652;9.292;2023-12-20T10:04:46;18.55;;;2.55;;
73642;SDS011;61938;48.652;9.292;2023-12-20T10:07:15;8.35;;;2.20;;
73642;SDS011;61938;48.652;9.292;2023-12-20T10:09:41;27.23;;;3.53;;
73642;SDS011;61938;48.652;9.292;2023-12-20T10:12:07;50.17;;;4.57;;
73642;SDS011;61938;48.652;9.292;2023-12-20T10:14:33;24.10;;;5.88;;
73642;SDS011;61938;48.652;9.292;2023-12-20T10:17:02;20.65;;;4.82;;
73642;SDS011;61938;48.652;9.292;2023-12-20T10:19:28;12.18;;;3.33;;
73642;SDS011;61938;48.652;9.292;2023-12-20T10:21:54;8.10;;;2.42;;
73642;SDS011;61938;48.652;9.292;2023-12-20T10:24:19;7.43;;;2.53;;
73642;SDS011;61938;48.652;9.292;2023-12-20T10:26:45;10.30;;;2.80;;
73642;SDS011;61938;48.652;9.292;2023-12-20T10:29:11;7.65;;;1.98;;
73642;SDS011;61938;48.652;9.292;2023-12-20T10:31:37;7.93;;;2.13;;
73642;SDS011;61938;48.652;9.292;2023-12-20T10:34:03;6.75;;;2.08;;
73642;SDS011;61938;48.652;9.292;2023-12-20T10:36:30;9.10;;;2.17;;
73642;SDS011;61938;48.652;9.292;2023-12-20T10:38:57;7.85;;;1.83;;
73642;SDS011;61938;48.652;9.292;2023-12-20T10:41:32;7.90;;;1.90;;
73642;SDS011;61938;48.652;9.292;2023-12-20T10:44:04;9.73;;;2.30;;
73642;SDS011;61938;48.652;9.292;2023-12-20T10:48:57;4.82;;;1.73;;
73642;SDS011;61938;48.652;9.292;2023-12-20T10:51:23;3.28;;;1.30;;
73642;SDS011;61938;48.652;9.292;2023-12-20T10:53:51;8.20;;;2.60;;
73642;SDS011;61938;48.652;9.292;2023-12-20T10:56:18;6.90;;;1.92;;
73642;SDS011;61938;48.652;9.292;2023-12-20T10:58:45;4.35;;;1.58;;
73642;SDS011;61938;48.652;9.292;2023-12-20T11:01:13;5.28;;;1.80;;
73642;SDS011;61938;48.652;9.292;2023-12-20T11:03:41;3.97;;;1.55;;
73642;SDS011;61938;48.652;9.292;2023-12-20T11:08:56;6.25;;;1.50;;
73642;SDS011;61938;48.652;9.292;2023-12-20T11:12:20;4.90;;;1.70;;
73642;SDS011;61938;48.652;9.292;2023-12-20T11:14:23;4.85;;;2.00;;
73642;SDS011;61938;48.652;9.292;2023-12-20T11:17:05;7.38;;;2.50;;
73642;SDS011;61938;48.652;9.292;2023-12-20T11:19:36;4.35;;;1.48;;
73642;SDS011;61938;48.652;9.292;2023-12-20T11:22:03;7.18;;;1.65;;
73642;SDS011;61938;48.652;9.292;2023-12-20T11:24:31;6.75;;;1.95;;
73642;SDS011;61938;48.652;9.292;2023-12-20T11:26:57;8.68;;;1.95;;
73642;SDS011;61938;48.652;9.292;2023-12-20T11:29:32;11.27;;;1.80;;
73642;SDS011;61938;48.652;9.292;2023-12-20T11:32:00;6.88;;;1.80;;
73642;SDS011;61938;48.652;9.292;2023-12-20T11:34:27;5.60;;;2.20;;
73642;SDS011;61938;48.652;9.292;2023-12-20T11:36:59;6.60;;;1.90;;
73642;SDS011;61938;48.652;9.292;2023-12-20T11:39:27;4.68;;;2.05;;
73642;SDS011;61938;48.652;9.292;2023-12-20T11:41:54;5.75;;;2.03;;
73642;SDS011;61938;48.652;9.292;2023-12-20T11:44:21;5.07;;;2.10;;
73642;SDS011;61938;48.652;9.292;2023-12-20T11:46:47;3.60;;;2.00;;
73642;SDS011;61938;48.652;9.292;2023-12-20T11:49:12;4.65;;;1.90;;
73642;SDS011;61938;48.652;9.292;2023-12-20T11:51:41;6.53;;;1.75;;
73642;SDS011;61938;48.652;9.292;2023-12-20T11:54:07;4.55;;;1.88;;
73642;SDS011;61938;48.652;9.292;2023-12-20T11:56:34;8.25;;;2.08;;
73642;SDS011;61938;48.652;9.292;2023-12-20T11:59:01;6.47;;;2.03;;
73642;SDS011;61938;48.652;9.292;2023-12-20T12:01:26;7.43;;;2.17;;
73642;SDS011;61938;48.652;9.292;2023-12-20T12:04:07;4.07;;;1.80;;
73642;SDS011;61938;48.652;9.292;2023-12-20T12:06:32;4.30;;;1.65;;
73642;SDS011;61938;48.652;9.292;2023-12-20T12:08:58;4.88;;;2.25;;
73642;SDS011;61938;48.652;9.292;2023-12-20T12:11:24;6.68;;;2.03;;
73642;SDS011;61938;48.652;9.292;2023-12-20T12:13:50;3.70;;;1.73;;
73642;SDS011;61938;48.652;9.292;2023-12-20T12:16:22;4.85;;;1.80;;
73642;SDS011;61938;48.652;9.292;2023-12-20T12:18:57;9.73;;;1.75;;
73642;SDS011;61938;48.652;9.292;2023-12-20T12:21:23;3.95;;;1.98;;
73642;SDS011;61938;48.652;9.292;2023-12-20T12:23:49;7.00;;;1.83;;
73642;SDS011;61938;48.652;9.292;2023-12-20T12:26:15;4.88;;;2.28;;
73642;SDS011;61938;48.652;9.292;2023-12-20T12:28:40;7.72;;;2.55;;
73642;SDS011;61938;48.652;9.292;2023-12-20T12:31:07;6.18;;;1.88;;
73642;SDS011;61938;48.652;9.292;2023-12-20T12:33:33;4.90;;;1.55;;
73642;SDS011;61938;48.652;9.292;2023-12-20T12:36:00;14.55;;;2.22;;
73642;SDS011;61938;48.652;9.292;2023-12-20T12:38:26;8.32;;;2.42;;
73642;SDS011;61938;48.652;9.292;2023-12-20T12:40:52;14.23;;;2.00;;
73642;SDS011;61938;48.652;9.292;2023-12-20T12:43:18;10.52;;;2.63;;
73642;SDS011;61938;48.652;9.292;2023-12-20T12:45:44;7.68;;;3.75;;
73642;SDS011;61938;48.652;9.292;2023-12-20T12:48:10;12.95;;;3.65;;
73642;SDS011;61938;48.652;9.292;2023-12-20T12:50:35;7.63;;;2.95;;
73642;SDS011;61938;48.652;9.292;2023-12-20T12:53:02;5.82;;;2.38;;
73642;SDS011;61938;48.652;9.292;2023-12-20T12:55:28;4.18;;;1.92;;
73642;SDS011;61938;48.652;9.292;2023-12-20T12:57:53;7.68;;;2.50;;
73642;SDS011;61938;48.652;9.292;2023-12-20T13:00:19;6.28;;;2.30;;
73642;SDS011;61938;48.652;9.292;2023-12-20T13:02:45;9.35;;;2.38;;
73642;SDS011;61938;48.652;9.292;2023-12-20T13:05:10;8.60;;;2.10;;
73642;SDS011;61938;48.652;9.292;2023-12-20T13:07:36;10.40;;;3.45;;
73642;SDS011;61938;48.652;9.292;2023-12-20T13:10:02;4.22;;;2.20;;
73642;SDS011;61938;48.652;9.292;2023-12-20T13:12:29;4.88;;;1.77;;
73642;SDS011;61938;48.652;9.292;2023-12-20T13:14:54;6.03;;;1.75;;
73642;SDS011;61938;48.652;9.292;2023-12-20T13:17:20;10.43;;;1.80;;
73642;SDS011;61938;48.652;9.292;2023-12-20T13:19:45;6.20;;;2.03;;
73642;SDS011;61938;48.652;9.292;2023-12-20T13:22:11;10.07;;;2.50;;
73642;SDS011;61938;48.652;9.292;2023-12-20T13:24:36;5.65;;;2.00;;
73642;SDS011;61938;48.652;9.292;2023-12-20T13:27:02;11.05;;;3.80;;
73642;SDS011;61938;48.652;9.292;2023-12-20T13:29:28;12.02;;;2.92;;
73642;SDS011;61938;48.652;9.292;2023-12-20T13:31:53;9.77;;;2.50;;
73642;SDS011;61938;48.652;9.292;2023-12-20T13:34:19;7.78;;;2.13;;
73642;SDS011;61938;48.652;9.292;2023-12-20T13:36:45;4.38;;;1.67;;
73642;SDS011;61938;48.652;9.292;2023-12-20T13:39:15;5.93;;;1.95;;
73642;SDS011;61938;48.652;9.292;2023-12-20T13:41:41;8.82;;;2.35;;
73642;SDS011;61938;48.652;9.292;2023-12-20T13:44:07;8.63;;;2.22;;
73642;SDS011;61938;48.652;9.292;2023-12-20T13:46:33;10.60;;;2.50;;
73642;SDS011;61938;48.652;9.292;2023-12-20T13:48:58;6.07;;;2.13;;
73642;SDS011;61938;48.652;9.292;2023-12-20T13:51:24;6.85;;;2.17;;
73642;SDS011;61938;48.652;9.292;2023-12-20T13:53:50;9.65;;;2.60;;
73642;SDS011;61938;48.652;9.292;2023-12-20T13:56:15;10.43;;;2.70;;
73642;SDS011;61938;48.652;9.292;2023-12-20T13:58:41;8.38;;;2.47;;
73642;SDS011;61938;48.652;9.292;2023-12-20T14:01:10;9.27;;;2.78;;
73642;SDS011;61938;48.652;9.292;2023-12-20T14:03:36;11.35;;;2.58;;
73642;SDS011;61938;48.652;9.292;2023-12-20T14:06:02;7.95;;;2.67;;
73642;SDS011;61938;48.652;9.292;2023-12-20T14:08:28;9.43;;;2.70;;
73642;SDS011;61938;48.652;9.292;2023-12-20T14:10:54;9.95;;;3.17;;
73642;SDS011;61938;48.652;9.292;2023-12-20T14:13:19;9.95;;;3.13;;
73642;SDS011;61938;48.652;9.292;2023-12-20T14:15:45;10.48;;;4.53;;
73642;SDS011;61938;48.652;9.292;2023-12-20T14:18:11;7.97;;;2.65;;
73642;SDS011;61938;48.652;9.292;2023-12-20T14:20:39;11.43;;;2.80;;
73642;SDS011;61938;48.652;9.292;2023-12-20T14:23:07;10.85;;;3.38;;
73642;SDS011;61938;48.652;9.292;2023-12-20T14:25:34;11.88;;;2.60;;
73642;SDS011;61938;48.652;9.292;2023-12-20T14:28:02;10.07;;;2.38;;
73642;SDS011;61938;48.652;9.292;2023-12-20T14:30:28;6.32;;;2.17;;
73642;SDS011;61938;48.652;9.292;2023-12-20T14:32:53;25.48;;;3.17;;
73642;SDS011;61938;48.652;9.292;2023-12-20T14:35:19;13.82;;;2.88;;
73642;SDS011;61938;48.652;9.292;2023-12-20T14:37:44;36.53;;;4.03;;
73642;SDS011;61938;48.652;9.292;2023-12-20T14:40:10;12.57;;;3.90;;
73642;SDS011;61938;48.652;9.292;2023-12-20T14:42:46;5.95;;;2.22;;
73642;SDS011;61938;48.652;9.292;2023-12-20T14:45:12;6.28;;;2.17;;
73642;SDS011;61938;48.652;9.292;2023-12-20T14:47:39;11.27;;;2.22;;